Time;durP1;ratioP1;P1;durP2;ratioP2;P2;SDS_P1;SDS_P2;PMS_P1;PMS_P2;Temp;Humidity;BMP_temperature;BMP_pressure;BME280_temperature;BME280_humidity;BME280_pressure;Samples;Min_cycle;Max_cycle;Signal;HPM_P1;HPM_P2
2020/12/21 05:01:39;;;;;;;14.65;9.18;;;6.60;99.90;;;;;;5425099;23;20696;-70
2020/12/21 05:04:05;;;;;;;11.73;8.43;;;6.60;99.90;;;;;;4971619;28;20524;-70
2020/12/21 05:06:31;;;;;;;13.50;9.38;;;6.60;99.90;;;;;;4970709;28;20220;-70
2020/12/21 05:09:05;;;;;;;13.18;8.20;;;6.60;99.90;;;;;;4968026;28;20209;-70
2020/12/21 05:11:32;;;;;;;10.50;8.00;;;6.70;99.90;;;;;;4955664;28;20693;-68
2020/12/21 05:14:05;;;;;;;13.13;8.93;;;6.70;99.90;;;;;;4953690;28;20623;-70
2020/12/21 05:16:32;;;;;;;9.27;8.35;;;6.70;99.90;;;;;;4952202;28;20300;-71
2020/12/21 05:18:59;;;;;;;10.90;7.97;;;6.70;99.90;;;;;;4939749;29;20206;-70
2020/12/21 05:21:30;;;;;;;12.07;7.90;;;6.70;99.90;;;;;;4948553;28;20620;-70
2020/12/21 05:23:56;;;;;;;12.88;8.70;;;6.70;99.90;;;;;;4953284;28;20260;-70
2020/12/21 05:26:27;;;;;;;13.63;9.00;;;6.60;99.90;;;;;;4941371;29;20202;-70
2020/12/21 05:28:53;;;;;;;13.80;8.40;;;6.60;99.90;;;;;;4942988;29;20619;-70
2020/12/21 05:31:20;;;;;;;11.85;8.63;;;6.60;99.90;;;;;;4954588;28;20232;-70
2020/12/21 05:33:48;;;;;;;10.38;8.60;;;6.60;99.90;;;;;;4958041;28;20260;-71
2020/12/21 05:36:16;;;;;;;12.10;8.75;;;6.60;99.90;;;;;;4949235;29;20206;-71
2020/12/21 05:38:43;;;;;;;14.20;9.18;;;6.60;99.90;;;;;;4951146;28;20213;-70
2020/12/21 05:41:11;;;;;;;14.77;8.82;;;6.60;99.90;;;;;;4955462;28;20276;-70
2020/12/21 05:43:38;;;;;;;16.52;8.00;;;6.60;99.90;;;;;;4956824;28;20209;-70
2020/12/21 05:46:06;;;;;;;11.73;7.70;;;6.50;99.90;;;;;;4956918;28;20638;-70
2020/12/21 05:48:34;;;;;;;13.23;8.88;;;6.50;99.90;;;;;;4956281;29;20206;-70
2020/12/21 05:51:02;;;;;;;11.38;7.93;;;6.50;99.90;;;;;;4949247;28;20629;-69
2020/12/21 05:53:39;;;;;;;10.57;7.80;;;6.50;99.90;;;;;;4954597;28;20213;-69
2020/12/21 05:56:06;;;;;;;15.10;9.50;;;6.50;99.90;;;;;;4956939;28;20303;-69
2020/12/21 05:58:33;;;;;;;12.30;8.90;;;6.50;99.90;;;;;;4957245;28;20213;-69
2020/12/21 06:01:05;;;;;;;10.30;8.02;;;6.50;99.90;;;;;;4953799;28;20280;-69
2020/12/21 06:03:42;;;;;;;11.13;7.63;;;6.50;99.90;;;;;;4938169;29;20282;-69
2020/12/21 06:06:14;;;;;;;8.00;6.85;;;6.40;99.90;;;;;;4948655;29;20209;-69
2020/12/21 06:08:41;;;;;;;17.25;8.65;;;6.40;99.90;;;;;;4956311;28;20256;-69
2020/12/21 06:11:26;;;;;;;9.43;7.80;;;6.40;99.90;;;;;;4947316;29;20289;-69
2020/12/21 06:13:57;;;;;;;15.25;8.15;;;6.40;99.90;;;;;;4946478;29;20213;-69
2020/12/21 06:16:24;;;;;;;14.00;8.48;;;6.30;99.90;;;;;;4956521;28;20205;-69
2020/12/21 06:19:02;;;;;;;13.65;8.80;;;6.30;99.90;;;;;;4956420;28;20209;-69
2020/12/21 06:21:29;;;;;;;9.20;7.55;;;6.30;99.90;;;;;;4956397;28;20232;-69
2020/12/21 06:23:57;;;;;;;13.35;9.10;;;6.30;99.90;;;;;;4958553;28;20268;-70
2020/12/21 06:26:34;;;;;;;10.75;8.25;;;6.20;99.90;;;;;;4959260;29;20225;-70
2020/12/21 06:29:07;;;;;;;14.50;8.75;;;6.20;99.90;;;;;;4956017;28;20209;-70
2020/12/21 06:31:38;;;;;;;11.07;7.18;;;6.20;99.90;;;;;;4956095;28;20512;-69
2020/12/21 06:34:04;;;;;;;9.02;8.13;;;6.20;99.90;;;;;;4945360;28;20240;-69
2020/12/21 06:36:30;;;;;;;16.38;9.30;;;6.20;99.90;;;;;;4942313;29;20206;-69
2020/12/21 06:38:58;;;;;;;10.40;7.18;;;6.30;99.90;;;;;;4953930;28;20213;-69
2020/12/21 06:41:27;;;;;;;16.80;8.15;;;6.30;99.90;;;;;;4947069;28;20513;-71
2020/12/21 06:43:58;;;;;;;13.48;9.55;;;6.30;99.90;;;;;;4954162;28;20661;-70
2020/12/21 06:46:24;;;;;;;13.02;7.60;;;6.30;99.90;;;;;;4952340;28;20206;-72
2020/12/21 06:49:04;;;;;;;16.52;8.15;;;6.30;99.90;;;;;;4936859;29;20210;-71
2020/12/21 06:51:31;;;;;;;12.52;8.82;;;6.30;99.90;;;;;;4941933;29;20593;-71
2020/12/21 06:53:59;;;;;;;13.13;8.18;;;6.40;99.90;;;;;;4936135;29;20240;-71
2020/12/21 06:56:26;;;;;;;14.55;8.80;;;6.30;99.90;;;;;;4954042;29;20205;-70
2020/12/21 06:58:53;;;;;;;10.57;8.05;;;6.40;99.90;;;;;;4955449;29;20473;-70
2020/12/21 07:01:21;;;;;;;9.85;8.13;;;6.30;99.90;;;;;;4939261;28;20634;-70
2020/12/21 07:03:48;;;;;;;8.73;7.07;;;6.30;99.90;;;;;;4947326;29;20272;-70
2020/12/21 07:06:14;;;;;;;15.45;9.30;;;6.30;99.90;;;;;;4956011;28;20220;-71
2020/12/21 07:08:41;;;;;;;13.32;7.82;;;6.30;99.90;;;;;;4947525;28;20213;-70
2020/12/21 07:11:13;;;;;;;12.90;7.57;;;6.20;99.90;;;;;;4953975;28;20625;-70
2020/12/21 07:13:39;;;;;;;10.48;7.43;;;6.20;99.90;;;;;;4946668;28;20243;-71
2020/12/21 07:16:07;;;;;;;9.45;7.10;;;6.20;99.90;;;;;;4936732;29;20213;-70
2020/12/21 07:18:33;;;;;;;12.05;7.38;;;6.10;99.90;;;;;;4943933;29;20224;-69
2020/12/21 07:20:59;;;;;;;14.13;6.82;;;6.10;99.90;;;;;;4938585;28;20344;-70
2020/12/21 07:23:26;;;;;;;8.40;7.70;;;6.10;99.90;;;;;;4939867;29;20232;-70
2020/12/21 07:25:53;;;;;;;14.77;8.20;;;6.10;99.90;;;;;;4956167;28;20205;-70
2020/12/21 07:28:23;;;;;;;13.57;7.40;;;6.00;99.90;;;;;;4951874;28;20213;-71
2020/12/21 07:30:49;;;;;;;15.25;8.60;;;6.00;99.90;;;;;;4941476;29;20218;-71
2020/12/21 07:33:15;;;;;;;14.80;9.43;;;6.00;99.90;;;;;;4956701;28;20212;-71
2020/12/21 07:35:41;;;;;;;10.38;6.75;;;6.00;99.90;;;;;;4955017;28;20215;-71
2020/12/21 07:38:12;;;;;;;7.75;6.60;;;6.00;99.90;;;;;;4944427;28;20205;-71
2020/12/21 07:40:39;;;;;;;10.15;7.45;;;6.00;99.90;;;;;;4939528;29;20253;-71
2020/12/21 07:43:12;;;;;;;14.88;8.25;;;6.00;99.90;;;;;;4945766;29;20202;-71
2020/12/21 07:45:42;;;;;;;8.50;7.25;;;6.00;99.90;;;;;;4957173;29;20213;-71
2020/12/21 07:48:09;;;;;;;8.40;6.43;;;6.00;99.90;;;;;;4955910;29;20661;-71
2020/12/21 07:50:36;;;;;;;10.23;7.20;;;5.90;99.90;;;;;;4944743;29;20239;-70
2020/12/21 07:53:03;;;;;;;12.00;7.80;;;6.00;99.90;;;;;;4956801;28;20688;-72
2020/12/21 07:55:29;;;;;;;16.33;8.95;;;6.00;99.90;;;;;;4974216;28;20216;-72
2020/12/21 07:57:55;;;;;;;8.65;7.50;;;6.00;99.90;;;;;;4942529;28;20719;-71
2020/12/21 08:00:21;;;;;;;13.48;7.20;;;6.00;99.90;;;;;;4952376;28;20556;-71
2020/12/21 08:02:51;;;;;;;10.75;7.60;;;5.90;99.90;;;;;;4940052;28;20209;-71
2020/12/21 08:05:19;;;;;;;9.23;6.03;;;5.90;99.90;;;;;;4936434;29;20214;-71
2020/12/21 08:07:45;;;;;;;15.65;7.30;;;5.90;99.90;;;;;;4950323;29;20221;-71
2020/12/21 08:10:12;;;;;;;9.48;5.90;;;5.90;99.90;;;;;;4946568;28;20536;-71
2020/12/21 08:12:39;;;;;;;10.25;7.00;;;5.90;99.90;;;;;;4952634;28;20556;-71
2020/12/21 08:15:07;;;;;;;11.48;6.22;;;5.90;99.90;;;;;;4945968;29;20264;-71
2020/12/21 08:17:33;;;;;;;9.48;7.60;;;5.90;99.90;;;;;;4950445;28;20296;-70
2020/12/21 08:20:05;;;;;;;9.85;6.35;;;5.90;99.90;;;;;;4946540;28;20642;-71
2020/12/21 08:22:32;;;;;;;8.30;6.45;;;5.90;99.90;;;;;;4937798;29;20201;-71
2020/12/21 08:25:01;;;;;;;9.45;6.93;;;5.90;99.90;;;;;;4944942;28;20331;-72
2020/12/21 08:27:28;;;;;;;10.25;7.22;;;5.90;99.90;;;;;;4947967;28;20268;-72
2020/12/21 08:30:07;;;;;;;11.00;7.05;;;5.90;99.90;;;;;;4951254;29;20209;-72
2020/12/21 08:32:33;;;;;;;10.23;6.63;;;5.90;99.90;;;;;;4954561;29;20201;-70
2020/12/21 08:35:00;;;;;;;12.40;6.97;;;6.00;99.90;;;;;;4954152;28;20239;-71
2020/12/21 08:37:26;;;;;;;12.07;6.53;;;6.00;99.90;;;;;;4954590;28;20201;-71
2020/12/21 08:39:53;;;;;;;13.15;6.88;;;6.00;99.90;;;;;;4951175;28;20228;-72
2020/12/21 08:42:19;;;;;;;17.83;7.28;;;6.00;99.90;;;;;;4954622;29;20229;-70
2020/12/21 08:44:49;;;;;;;10.25;6.75;;;6.00;99.90;;;;;;4951889;28;20221;-71
2020/12/21 08:47:15;;;;;;;15.13;8.00;;;6.10;99.90;;;;;;4944892;29;20209;-71
2020/12/21 08:49:41;;;;;;;14.65;7.63;;;6.10;99.90;;;;;;4941829;28;20261;-71
2020/12/21 08:52:08;;;;;;;11.85;7.03;;;6.20;99.90;;;;;;4955360;29;20233;-71
2020/12/21 08:54:34;;;;;;;18.23;8.05;;;6.20;99.90;;;;;;4954217;28;20209;-71
2020/12/21 08:57:00;;;;;;;8.85;6.32;;;6.20;99.90;;;;;;4953955;28;20217;-72
2020/12/21 08:59:26;;;;;;;11.32;7.18;;;6.30;99.90;;;;;;4941999;28;20210;-71
2020/12/21 09:01:52;;;;;;;11.23;7.50;;;6.30;99.90;;;;;;4952304;29;20232;-71
2020/12/21 09:04:18;;;;;;;8.20;7.32;;;6.30;99.90;;;;;;4951236;28;20265;-71
2020/12/21 09:06:45;;;;;;;11.98;6.95;;;6.30;99.90;;;;;;4956805;28;20620;-71
2020/12/21 09:09:12;;;;;;;13.35;7.78;;;6.40;99.90;;;;;;4951593;28;20638;-70
2020/12/21 09:11:38;;;;;;;10.48;7.32;;;6.40;99.90;;;;;;4956728;28;20228;-70
2020/12/21 09:14:04;;;;;;;8.25;7.43;;;6.60;99.90;;;;;;4957937;28;20236;-70
2020/12/21 09:16:31;;;;;;;7.97;6.78;;;6.60;99.90;;;;;;4950779;28;20874;-70
2020/12/21 09:18:58;;;;;;;11.32;7.60;;;6.70;99.90;;;;;;4939567;29;20304;-70
2020/12/21 09:21:26;;;;;;;11.02;7.15;;;6.70;99.90;;;;;;4943953;29;20280;-71
2020/12/21 09:23:53;;;;;;;8.02;7.10;;;6.80;99.90;;;;;;4957478;28;20205;-70
2020/12/21 09:26:21;;;;;;;9.10;6.47;;;6.80;99.90;;;;;;4957037;28;20296;-70
2020/12/21 09:28:48;;;;;;;9.00;6.28;;;6.80;99.90;;;;;;4956646;28;20217;-71
2020/12/21 09:31:15;;;;;;;7.13;5.80;;;6.70;99.90;;;;;;4957939;28;20225;-70
2020/12/21 09:33:42;;;;;;;13.05;7.00;;;6.70;99.90;;;;;;4955565;29;20213;-71
2020/12/21 09:36:09;;;;;;;8.45;6.70;;;6.80;99.90;;;;;;4956680;28;20212;-72
2020/12/21 09:38:36;;;;;;;7.10;6.03;;;6.80;99.90;;;;;;4953242;29;20217;-73
2020/12/21 09:41:02;;;;;;;8.55;6.15;;;6.80;99.90;;;;;;4953782;28;20379;-72
2020/12/21 09:43:30;;;;;;;7.63;6.70;;;6.90;99.90;;;;;;4943167;28;20209;-71
2020/12/21 09:45:56;;;;;;;7.20;6.05;;;6.90;99.90;;;;;;4943939;29;20619;-71
2020/12/21 09:48:22;;;;;;;5.78;5.38;;;6.90;99.90;;;;;;4943117;29;20206;-72
2020/12/21 09:50:49;;;;;;;9.10;6.07;;;6.90;99.90;;;;;;4938612;29;20225;-72
2020/12/21 09:53:16;;;;;;;7.28;5.80;;;6.90;99.90;;;;;;4946306;29;20220;-72
2020/12/21 09:55:42;;;;;;;8.88;4.75;;;7.00;99.90;;;;;;4957514;29;20685;-71
2020/12/21 09:58:08;;;;;;;6.75;6.15;;;7.00;99.90;;;;;;4955855;29;20268;-71
2020/12/21 10:00:35;;;;;;;5.80;5.20;;;7.00;99.90;;;;;;4957841;28;20654;-72
2020/12/21 10:03:01;;;;;;;7.80;6.30;;;7.00;99.90;;;;;;4956942;28;20674;-71
2020/12/21 10:05:28;;;;;;;5.80;5.30;;;7.00;99.90;;;;;;4957850;28;20268;-71
2020/12/21 10:07:54;;;;;;;8.05;6.35;;;7.00;99.90;;;;;;4957357;29;20213;-71
2020/12/21 10:10:20;;;;;;;116.45;51.97;;;7.00;99.90;;;;;;4956868;28;20202;-71
2020/12/21 10:12:46;;;;;;;11.07;9.60;;;7.00;99.90;;;;;;4956056;28;20252;-71
2020/12/21 10:15:12;;;;;;;26.13;15.10;;;7.00;99.90;;;;;;4953860;29;20212;-70
2020/12/21 10:17:39;;;;;;;21.08;15.48;;;7.10;99.90;;;;;;4957619;28;20206;-70
2020/12/21 10:20:05;;;;;;;14.70;10.40;;;7.20;99.90;;;;;;4958254;29;20225;-71
2020/12/21 10:22:31;;;;;;;20.02;11.95;;;7.20;99.90;;;;;;4955729;28;20292;-71
2020/12/21 10:24:58;;;;;;;8.07;7.15;;;7.30;99.90;;;;;;4956697;29;20268;-71
2020/12/21 10:27:24;;;;;;;12.50;8.18;;;7.30;99.90;;;;;;4955429;29;20224;-70
2020/12/21 10:29:50;;;;;;;9.27;5.40;;;7.40;99.90;;;;;;4938339;29;20601;-70
2020/12/21 10:32:16;;;;;;;9.32;7.00;;;7.50;99.90;;;;;;4941986;29;20221;-71
2020/12/21 10:34:43;;;;;;;9.63;6.43;;;7.50;99.90;;;;;;4956920;28;20693;-72
2020/12/21 10:37:09;;;;;;;10.40;7.35;;;7.50;99.90;;;;;;4957352;28;20213;-71
2020/12/21 10:39:36;;;;;;;10.80;5.82;;;7.60;99.90;;;;;;4956409;28;20213;-72
2020/12/21 10:42:05;;;;;;;9.57;8.05;;;7.60;99.90;;;;;;4957140;28;20617;-72
2020/12/21 10:44:31;;;;;;;5.35;4.95;;;7.70;99.90;;;;;;4956369;28;20209;-72
2020/12/21 10:46:57;;;;;;;8.63;6.35;;;7.70;99.90;;;;;;4956375;28;20632;-72
2020/12/21 10:49:24;;;;;;;7.43;6.70;;;7.70;99.90;;;;;;4956507;29;20205;-70
2020/12/21 10:51:51;;;;;;;4.50;4.20;;;7.70;99.90;;;;;;4956030;28;20354;-72
2020/12/21 10:54:17;;;;;;;6.20;5.70;;;7.70;99.90;;;;;;4955897;28;20313;-72
2020/12/21 10:56:43;;;;;;;6.60;4.40;;;7.70;99.90;;;;;;4956374;28;20217;-72
2020/12/21 10:59:09;;;;;;;7.03;4.55;;;7.80;99.90;;;;;;4958162;28;20220;-72
2020/12/21 11:01:35;;;;;;;11.80;4.55;;;7.80;99.90;;;;;;4958440;28;20329;-72
2020/12/21 11:04:01;;;;;;;12.35;6.55;;;7.80;99.90;;;;;;4960295;29;20213;-72
2020/12/21 11:06:28;;;;;;;8.65;4.70;;;7.90;99.90;;;;;;4957669;28;20212;-72
2020/12/21 11:08:55;;;;;;;6.93;3.97;;;8.00;99.90;;;;;;4950087;28;20217;-72
2020/12/21 11:11:25;;;;;;;7.70;6.00;;;8.00;99.90;;;;;;4939722;29;20332;-71
2020/12/21 11:13:52;;;;;;;5.75;5.35;;;8.00;99.90;;;;;;4954382;29;20279;-70
2020/12/21 11:16:18;;;;;;;6.40;5.90;;;8.00;99.90;;;;;;4957928;28;20216;-70
2020/12/21 11:18:44;;;;;;;6.40;3.85;;;8.10;99.90;;;;;;4955179;28;20213;-70
2020/12/21 11:21:10;;;;;;;4.97;4.50;;;8.10;99.90;;;;;;4937818;29;20237;-70
2020/12/21 11:23:36;;;;;;;5.15;4.00;;;8.10;99.90;;;;;;4947982;29;20228;-71
2020/12/21 11:26:03;;;;;;;6.80;4.15;;;8.10;99.90;;;;;;4954948;28;20661;-71
2020/12/21 11:28:30;;;;;;;4.72;3.60;;;8.20;99.90;;;;;;4950104;28;20209;-71
2020/12/21 11:30:56;;;;;;;5.32;4.30;;;8.20;99.90;;;;;;4942906;29;20256;-70
2020/12/21 11:33:22;;;;;;;4.55;4.15;;;8.30;99.90;;;;;;4945360;29;20208;-69
2020/12/21 11:35:48;;;;;;;4.05;3.47;;;8.30;99.90;;;;;;4955263;28;20221;-68
2020/12/21 11:38:16;;;;;;;13.90;11.40;;;8.30;99.90;;;;;;4953959;29;20216;-70
2020/12/21 11:40:45;;;;;;;3.53;2.95;;;8.40;99.90;;;;;;4954776;28;20288;-70
2020/12/21 11:43:12;;;;;;;4.78;3.22;;;8.40;99.90;;;;;;4953983;28;20672;-71
2020/12/21 11:45:38;;;;;;;3.55;3.25;;;8.40;99.90;;;;;;4935743;29;20214;-69
2020/12/21 11:48:04;;;;;;;3.50;3.30;;;8.40;99.90;;;;;;4940634;29;20201;-71
2020/12/21 11:50:31;;;;;;;4.13;2.72;;;8.40;99.90;;;;;;4955053;29;20221;-69
2020/12/21 11:52:57;;;;;;;3.58;3.38;;;8.40;99.90;;;;;;4953659;28;20304;-69
2020/12/21 11:55:23;;;;;;;3.53;3.17;;;8.50;99.90;;;;;;4953932;29;20198;-69
2020/12/21 11:57:49;;;;;;;6.85;3.13;;;8.50;99.90;;;;;;4954393;28;20206;-68
2020/12/21 12:00:16;;;;;;;6.95;3.38;;;8.50;99.90;;;;;;4951166;28;20226;-68
2020/12/21 12:02:42;;;;;;;4.18;3.85;;;8.50;99.90;;;;;;4953522;28;20229;-69
2020/12/21 12:05:11;;;;;;;4.63;3.40;;;8.50;99.90;;;;;;4954341;29;20235;-68
2020/12/21 12:07:37;;;;;;;6.47;3.60;;;8.50;99.90;;;;;;4953512;28;20209;-69
2020/12/21 12:10:04;;;;;;;2.85;2.70;;;8.50;99.90;;;;;;4954083;28;20678;-68
2020/12/21 12:12:30;;;;;;;6.47;3.92;;;8.50;99.90;;;;;;4954746;28;20229;-68
2020/12/21 12:14:56;;;;;;;5.13;3.45;;;8.50;99.90;;;;;;4952089;28;20273;-68
2020/12/21 12:17:23;;;;;;;5.15;4.75;;;8.50;99.90;;;;;;4939756;28;20608;-68
2020/12/21 12:19:49;;;;;;;29.80;14.45;;;8.60;99.90;;;;;;4935221;29;20309;-70
2020/12/21 12:22:15;;;;;;;11.15;8.45;;;8.60;99.90;;;;;;4935196;29;20249;-70
2020/12/21 12:24:42;;;;;;;3.58;3.28;;;8.60;99.90;;;;;;4934206;29;20213;-70
2020/12/21 12:27:08;;;;;;;5.72;4.10;;;8.60;99.90;;;;;;4935146;29;20690;-70
2020/12/21 12:29:34;;;;;;;3.40;3.10;;;8.60;99.90;;;;;;4936072;29;20217;-70
2020/12/21 12:32:02;;;;;;;3.03;2.60;;;8.60;99.90;;;;;;4954095;28;20221;-69
2020/12/21 12:34:29;;;;;;;7.05;3.03;;;8.60;99.90;;;;;;4954077;28;20205;-69
2020/12/21 12:36:56;;;;;;;3.20;2.95;;;8.60;99.90;;;;;;4943127;28;20206;-72
2020/12/21 12:39:22;;;;;;;4.20;3.85;;;8.60;99.90;;;;;;4935004;29;20210;-73
2020/12/21 12:41:48;;;;;;;3.33;3.13;;;8.60;99.90;;;;;;4935310;29;20229;-73
2020/12/21 12:44:14;;;;;;;5.00;4.65;;;8.60;99.90;;;;;;4935273;29;20624;-71
2020/12/21 12:46:40;;;;;;;4.55;4.38;;;8.50;99.90;;;;;;4936092;29;20206;-73
2020/12/21 12:49:07;;;;;;;3.55;3.00;;;8.50;99.90;;;;;;4935293;29;20221;-73
2020/12/21 12:51:36;;;;;;;4.10;3.00;;;8.50;99.90;;;;;;4935507;29;20259;-72
2020/12/21 12:54:03;;;;;;;3.65;3.42;;;8.40;99.90;;;;;;4934875;29;20216;-72
2020/12/21 12:56:29;;;;;;;3.55;3.35;;;8.40;99.90;;;;;;4947926;28;20213;-72
2020/12/21 12:58:55;;;;;;;4.38;3.05;;;8.30;99.90;;;;;;4954002;28;20265;-72
2020/12/21 13:01:22;;;;;;;5.45;3.15;;;8.30;99.90;;;;;;4954163;28;20304;-72
2020/12/21 13:03:48;;;;;;;2.70;2.60;;;8.30;99.90;;;;;;4952766;28;20209;-72
2020/12/21 13:06:14;;;;;;;3.00;2.80;;;8.30;99.90;;;;;;4951265;28;20213;-72
2020/12/21 13:08:41;;;;;;;4.05;3.75;;;8.30;99.90;;;;;;4949792;29;20559;-72
2020/12/21 13:11:09;;;;;;;6.28;3.17;;;8.20;99.90;;;;;;4953947;29;20268;-73
2020/12/21 13:13:36;;;;;;;2.80;2.60;;;8.20;99.90;;;;;;4953051;28;20216;-73
2020/12/21 13:16:03;;;;;;;12.10;5.20;;;8.20;99.90;;;;;;4952524;28;20237;-72
2020/12/21 13:18:29;;;;;;;5.22;4.32;;;8.20;99.90;;;;;;4953413;28;20657;-72
2020/12/21 13:20:55;;;;;;;3.80;3.58;;;8.20;99.90;;;;;;4953106;28;20233;-71
2020/12/21 13:23:22;;;;;;;5.38;3.42;;;8.20;99.90;;;;;;4934774;28;20713;-72
2020/12/21 13:25:50;;;;;;;8.48;4.05;;;8.20;99.90;;;;;;4944322;29;20212;-72
2020/12/21 13:28:16;;;;;;;4.40;2.97;;;8.20;99.90;;;;;;4953896;28;20710;-72
2020/12/21 13:30:42;;;;;;;6.40;3.92;;;8.10;99.90;;;;;;4949813;28;20752;-72
2020/12/21 13:33:08;;;;;;;3.35;3.22;;;8.10;99.90;;;;;;4953493;28;20237;-72
2020/12/21 13:35:35;;;;;;;2.90;2.80;;;8.10;99.90;;;;;;4946608;29;20249;-73
2020/12/21 13:38:01;;;;;;;3.20;3.08;;;8.10;99.90;;;;;;4940734;29;20213;-73
2020/12/21 13:40:27;;;;;;;6.07;4.22;;;8.10;99.90;;;;;;4952804;28;20236;-73
2020/12/21 13:42:54;;;;;;;3.88;3.50;;;8.00;99.90;;;;;;4953017;28;20201;-73
2020/12/21 13:45:20;;;;;;;5.32;3.63;;;8.00;99.90;;;;;;4952111;29;20539;-72
2020/12/21 13:47:47;;;;;;;9.02;4.47;;;7.90;99.90;;;;;;4953053;28;20205;-72
2020/12/21 13:50:13;;;;;;;3.25;3.10;;;7.90;99.90;;;;;;4954271;29;20237;-72
2020/12/21 13:52:39;;;;;;;5.13;4.70;;;7.90;99.90;;;;;;4953919;28;20246;-73
2020/12/21 13:55:05;;;;;;;5.30;3.45;;;7.80;99.90;;;;;;4948900;29;20695;-71
2020/12/21 13:57:32;;;;;;;4.50;3.90;;;7.80;99.90;;;;;;4947159;29;20198;-72
2020/12/21 13:59:59;;;;;;;4.05;3.65;;;7.80;99.90;;;;;;4953436;28;20209;-71
2020/12/21 14:02:25;;;;;;;4.22;3.75;;;7.80;99.90;;;;;;4956609;28;20252;-69
2020/12/21 14:04:52;;;;;;;4.72;4.25;;;7.70;99.90;;;;;;4952664;28;20214;-69
2020/12/21 14:07:18;;;;;;;4.85;4.15;;;7.60;99.90;;;;;;4938691;29;20290;-69
2020/12/21 14:09:44;;;;;;;5.55;5.07;;;7.60;99.90;;;;;;4953776;28;20260;-69
2020/12/21 14:12:11;;;;;;;7.32;6.63;;;7.60;99.90;;;;;;4956400;28;20217;-69
2020/12/21 14:14:37;;;;;;;8.15;5.40;;;7.60;99.90;;;;;;4942978;29;20285;-71
2020/12/21 14:17:04;;;;;;;7.47;5.35;;;7.60;99.90;;;;;;4945568;28;20682;-71
2020/12/21 14:19:30;;;;;;;5.40;4.97;;;7.50;99.90;;;;;;4956700;28;20620;-71
2020/12/21 14:21:56;;;;;;;5.10;4.70;;;7.50;99.90;;;;;;4956596;28;20232;-71
2020/12/21 14:24:23;;;;;;;7.28;5.28;;;7.50;99.90;;;;;;4954967;29;20560;-71
2020/12/21 14:26:49;;;;;;;8.48;7.57;;;7.50;99.90;;;;;;4954884;28;20240;-69
2020/12/21 14:29:15;;;;;;;8.63;5.28;;;7.50;99.90;;;;;;4953812;28;20355;-69
2020/12/21 14:31:42;;;;;;;4.47;4.18;;;7.50;99.90;;;;;;4946626;29;20253;-69
2020/12/21 14:34:09;;;;;;;6.50;4.40;;;7.50;99.90;;;;;;4949388;28;20639;-69
2020/12/21 14:36:36;;;;;;;5.68;4.68;;;7.50;99.90;;;;;;4956451;29;20249;-69
2020/12/21 14:39:06;;;;;;;4.70;4.40;;;7.40;99.90;;;;;;4950116;28;20198;-69
2020/12/21 14:41:33;;;;;;;6.72;4.40;;;7.40;99.90;;;;;;4948471;29;20569;-69
2020/12/21 14:43:59;;;;;;;9.43;5.50;;;7.40;99.90;;;;;;4955143;28;20209;-70
2020/12/21 14:46:26;;;;;;;7.30;6.22;;;7.40;99.90;;;;;;4947973;28;20288;-69
2020/12/21 14:48:52;;;;;;;6.30;5.30;;;7.40;99.90;;;;;;4952096;29;20729;-69
2020/12/21 14:51:21;;;;;;;5.65;4.65;;;7.30;99.90;;;;;;4941515;29;20232;-69
2020/12/21 14:53:48;;;;;;;5.65;3.92;;;7.30;99.90;;;;;;4939095;29;20297;-69
2020/12/21 14:56:16;;;;;;;7.03;6.00;;;7.20;99.90;;;;;;4944806;28;20213;-69
2020/12/21 14:58:47;;;;;;;15.27;10.93;;;7.20;99.90;;;;;;4938041;29;20209;-69
2020/12/21 15:01:14;;;;;;;5.43;4.40;;;7.20;99.90;;;;;;4950888;28;20315;-70
2020/12/21 15:03:40;;;;;;;5.68;5.18;;;7.20;99.90;;;;;;4939540;28;20710;-69
2020/12/21 15:06:09;;;;;;;5.00;4.50;;;7.20;99.90;;;;;;4944604;29;20206;-69
2020/12/21 15:08:36;;;;;;;8.32;5.90;;;7.20;99.90;;;;;;4940388;29;20548;-69
2020/12/21 15:11:02;;;;;;;10.90;5.78;;;7.30;99.90;;;;;;4954923;29;20224;-70
2020/12/21 15:13:28;;;;;;;12.27;5.75;;;7.30;99.90;;;;;;4955523;28;20208;-70
2020/12/21 15:16:01;;;;;;;5.25;4.75;;;7.30;99.90;;;;;;4952265;29;20217;-70
2020/12/21 15:18:28;;;;;;;5.28;4.80;;;7.20;99.90;;;;;;4955479;28;20321;-70
2020/12/21 15:20:54;;;;;;;4.60;4.20;;;7.30;99.90;;;;;;4954007;29;20278;-69
2020/12/21 15:23:20;;;;;;;3.97;3.65;;;7.30;99.90;;;;;;4952459;28;20221;-70
2020/12/21 15:25:47;;;;;;;4.35;3.92;;;7.30;99.90;;;;;;4943570;28;20209;-71
2020/12/21 15:28:15;;;;;;;4.35;3.95;;;7.20;99.90;;;;;;4947894;28;20228;-70
2020/12/21 15:30:41;;;;;;;4.63;4.20;;;7.20;99.90;;;;;;4945561;29;20232;-70
2020/12/21 15:33:07;;;;;;;8.20;4.28;;;7.20;99.90;;;;;;4945889;29;20218;-70
2020/12/21 15:35:34;;;;;;;4.63;4.20;;;7.20;99.90;;;;;;4950849;29;20276;-70
2020/12/21 15:38:00;;;;;;;5.53;4.65;;;7.20;99.90;;;;;;4950818;29;20205;-70
2020/12/21 15:40:26;;;;;;;7.78;4.50;;;7.20;99.90;;;;;;4948233;29;20208;-70
2020/12/21 15:42:53;;;;;;;7.03;4.80;;;7.20;99.90;;;;;;4948145;29;20220;-69
2020/12/21 15:45:19;;;;;;;7.20;4.10;;;7.20;99.90;;;;;;4942482;28;20206;-69
2020/12/21 15:47:46;;;;;;;4.35;3.95;;;7.20;99.90;;;;;;4945040;29;20272;-70
2020/12/21 15:50:12;;;;;;;3.45;3.22;;;7.20;99.90;;;;;;4952186;28;20292;-70
2020/12/21 15:52:38;;;;;;;5.30;4.10;;;7.20;99.90;;;;;;4954530;28;20265;-69
2020/12/21 15:55:04;;;;;;;10.05;4.32;;;7.20;99.90;;;;;;4954170;29;20220;-69
2020/12/21 15:57:30;;;;;;;7.03;4.45;;;7.20;99.90;;;;;;4951311;28;20299;-70
2020/12/21 15:59:57;;;;;;;4.72;4.32;;;7.20;99.90;;;;;;4952107;28;20202;-70
2020/12/21 16:02:23;;;;;;;4.47;4.07;;;7.20;99.90;;;;;;4939655;29;20394;-70
2020/12/21 16:04:49;;;;;;;7.07;5.10;;;7.20;99.90;;;;;;4956092;29;20205;-72
2020/12/21 16:07:16;;;;;;;4.68;4.25;;;7.20;99.90;;;;;;4952988;28;20210;-69
2020/12/21 16:09:42;;;;;;;6.45;5.35;;;7.20;99.90;;;;;;4947540;28;20265;-69
2020/12/21 16:12:11;;;;;;;6.03;5.30;;;7.20;99.90;;;;;;4936401;29;20760;-69
2020/12/21 16:14:38;;;;;;;7.28;5.68;;;7.20;99.90;;;;;;4947023;28;20210;-71
2020/12/21 16:17:07;;;;;;;13.15;5.88;;;7.20;99.90;;;;;;4938888;29;20531;-73
2020/12/21 16:19:34;;;;;;;7.00;6.35;;;7.20;99.90;;;;;;4953353;28;20213;-70
2020/12/21 16:22:00;;;;;;;9.93;6.55;;;7.20;99.90;;;;;;4937404;28;20229;-70
2020/12/21 16:24:27;;;;;;;7.68;6.90;;;7.20;99.90;;;;;;4948075;29;20229;-70
2020/12/21 16:26:53;;;;;;;8.48;6.78;;;7.20;99.90;;;;;;4950872;28;20209;-70
2020/12/21 16:29:19;;;;;;;7.70;7.10;;;7.20;99.90;;;;;;4934771;29;20289;-70
2020/12/21 16:31:51;;;;;;;9.20;5.78;;;7.20;99.90;;;;;;4950360;29;20249;-70
2020/12/21 16:34:18;;;;;;;9.45;7.63;;;7.20;99.90;;;;;;4953983;28;20239;-70
2020/12/21 16:36:44;;;;;;;10.27;6.20;;;7.20;99.90;;;;;;4953615;28;20201;-70
2020/12/21 16:39:11;;;;;;;6.25;5.75;;;7.20;99.90;;;;;;4956600;28;20669;-70
2020/12/21 16:41:37;;;;;;;8.45;7.00;;;7.20;99.90;;;;;;4950583;28;20240;-70
2020/12/21 16:44:03;;;;;;;7.45;5.30;;;7.20;99.90;;;;;;4952501;28;20205;-70
2020/12/21 16:46:29;;;;;;;9.82;6.15;;;7.20;99.90;;;;;;4953155;29;20609;-70
2020/12/21 16:48:55;;;;;;;4.95;4.40;;;7.20;99.90;;;;;;4942322;28;20217;-70
2020/12/21 16:51:23;;;;;;;5.28;4.72;;;7.20;99.90;;;;;;4952152;29;20605;-71
2020/12/21 16:53:49;;;;;;;5.50;4.90;;;7.20;99.90;;;;;;4938344;28;20210;-70
2020/12/21 16:56:19;;;;;;;5.32;4.78;;;7.20;99.90;;;;;;4942662;28;20257;-71
2020/12/21 16:58:45;;;;;;;7.43;4.97;;;7.20;99.90;;;;;;4949347;29;20213;-70
2020/12/21 17:01:13;;;;;;;6.93;2.85;;;7.20;99.90;;;;;;4946511;28;20233;-69
2020/12/21 17:03:40;;;;;;;6.85;5.47;;;7.20;99.90;;;;;;4949357;29;20574;-68
2020/12/21 17:06:09;;;;;;;5.18;4.63;;;7.20;99.90;;;;;;4952372;28;20224;-67
2020/12/21 17:08:36;;;;;;;6.72;4.70;;;7.30;99.90;;;;;;4951988;28;20208;-68
2020/12/21 17:11:02;;;;;;;4.80;4.40;;;7.30;99.90;;;;;;4953394;28;20217;-68
2020/12/21 17:13:28;;;;;;;8.18;4.75;;;7.20;99.90;;;;;;4953218;28;20280;-68
2020/12/21 17:15:54;;;;;;;4.78;4.35;;;7.30;99.90;;;;;;4940683;29;20214;-68
2020/12/21 17:18:20;;;;;;;5.50;4.25;;;7.30;99.90;;;;;;4946279;29;20205;-68
2020/12/21 17:20:46;;;;;;;9.10;5.50;;;7.30;99.90;;;;;;4939860;28;20230;-67
2020/12/21 17:23:12;;;;;;;7.07;4.45;;;7.30;99.90;;;;;;4933983;29;20236;-67
2020/12/21 17:25:39;;;;;;;5.25;4.78;;;7.30;99.90;;;;;;4942715;29;20244;-67
2020/12/21 17:28:05;;;;;;;5.30;4.80;;;7.30;99.90;;;;;;4941674;29;20216;-68
2020/12/21 17:30:31;;;;;;;4.40;4.00;;;7.30;99.90;;;;;;4954435;28;20280;-68
2020/12/21 17:32:57;;;;;;;4.95;4.57;;;7.30;99.90;;;;;;4950369;28;20245;-69
2020/12/21 17:35:25;;;;;;;5.55;4.82;;;7.30;99.90;;;;;;4954664;29;20201;-68
2020/12/21 17:37:51;;;;;;;5.15;4.65;;;7.30;99.90;;;;;;4953493;28;20198;-68
2020/12/21 17:40:18;;;;;;;5.10;4.60;;;7.30;99.90;;;;;;4947666;29;20256;-70
2020/12/21 17:42:45;;;;;;;5.10;4.80;;;7.30;99.90;;;;;;4956697;28;20304;-69
2020/12/21 17:45:11;;;;;;;4.80;4.35;;;7.30;99.90;;;;;;4957339;29;20210;-69
2020/12/21 17:47:37;;;;;;;5.28;4.05;;;7.30;99.90;;;;;;4954204;29;20257;-69
2020/12/21 17:50:04;;;;;;;4.30;3.80;;;7.30;99.90;;;;;;4951325;28;20213;-69
2020/12/21 17:52:30;;;;;;;8.02;4.95;;;7.30;99.90;;;;;;4942106;28;20225;-68